• Join FlightAware (Why Join?)
  • Login
  • US Flag 
06:12PM EDT


 

Airport Tracker/Info


-or-


 

Live Flight TrackerFlight Track Log ✈ EJA221 ✈ 14-Jul-2013 ✈ KLAS - KLAX

Flight Track Log - Related Links

Times and Time Zones

All times are in EDT time to prevent confusion due to time zone crossing. See the EJA221 flight status page for this flight to view local times or setup timezone preferences in your user account.

Time Position Orientation Groundspeed Altitude Reporting Facility
EDT Latitude Longitude Course Direction KTS MPH feet Rate Location/Type
09:18PM 36.0786 -115.1300 92° East 181 208 3,400  Level Los Angeles Center
09:19PM 36.0761 -115.0297 92° East 235 270 6,400 1,680 Climbing Los Angeles Center
09:20PM 36.0558 -114.9461 107° East 283 326 7,200 1,740 Climbing Los Angeles Center
09:21PM 36.0150 -114.9247 157° South 282 325 8,900 3,120 Climbing Los Angeles Center
09:21PM 35.9678 -114.9194 175° South 300 345 10,700 2,040 Climbing Los Angeles Center
09:22PM 35.8939 -114.9867 216° Southwest 347 399 12,200 1,380 Climbing Los Angeles Center
09:24PM 35.7972 -115.1086 226° Southwest 359 413 14,200 1,140 Climbing Los Angeles Center
09:25PM 35.7336 -115.2089 232° Southwest 367 422 15,100 960 Climbing Los Angeles Center
09:26PM 35.6675 -115.3106 231° Southwest 374 430 16,500 1,680 Climbing Los Angeles Center
09:27PM 35.5817 -115.4250 227° Southwest 376 433 19,000 2,400 Climbing Los Angeles Center
09:28PM 35.4931 -115.5411 227° Southwest 382 440 21,500 1,980 Climbing Los Angeles Center
09:29PM 35.4089 -115.6333 222° Southwest 400 460 23,100 1,500 Climbing Los Angeles Center
09:30PM 35.3192 -115.7253 220° Southwest 415 478 24,600 1,440 Climbing Los Angeles Center
09:31PM 35.2297 -115.8219 221° Southwest 424 488 26,100 1,500 Climbing Los Angeles Center
09:32PM 35.1417 -115.9286 225° Southwest 439 505 27,700 840 Climbing Los Angeles Center
09:34PM 35.0481 -116.0372 224° Southwest 454 522 28,000 120 Climbing Los Angeles Center
09:35PM 34.9294 -116.1733 223° Southwest 479 551 28,000  Level Los Angeles Center
09:36PM 34.8294 -116.2878 223° Southwest 488 562 28,000  Level Los Angeles Center
09:37PM 34.7103 -116.4250 223° Southwest 491 565 28,000  Level Los Angeles Center
09:38PM 34.6100 -116.5386 223° Southwest 492 566 28,000 -720 Level Los Angeles Center
09:39PM 34.5100 -116.6522 223° Southwest 491 565 26,600 -1,560 Descending Los Angeles Center
09:40PM 34.4111 -116.7633 223° Southwest 486 559 24,900 -1,860 Descending Los Angeles Center
09:41PM 34.3119 -116.8767 223° Southwest 488 562 22,900 -1,860 Descending Los Angeles Center
09:42PM 34.2169 -116.9844 223° Southwest 471 542 21,100 -1,500 Descending Los Angeles Center
09:43PM 34.1536 -117.0558 223° Southwest 408 470 19,900 -1,020 Descending Los Angeles Center
09:44PM 34.0728 -117.1919 234° Southwest 376 433 19,000 -1,260 Descending Los Angeles Center
09:45PM 34.0433 -117.3094 253° West 376 433 17,400 -2,280 Descending Los Angeles Center
09:46PM 34.0317 -117.4289 263° West 364 419 14,400 -2,400 Descending Los Angeles Center
09:47PM 34.0200 -117.5478 263° West 360 414 12,600 -1,680 Descending Los Angeles Center
09:48PM 34.0092 -117.6550 263° West 331 381 11,000 -1,680 Descending Los Angeles Center
09:49PM 33.9986 -117.7739 264° West 305 351 9,200 -1,440 Descending Los Angeles Center
09:50PM 33.9900 -117.8603 263° West 274 315 8,100 -1,080 Descending Los Angeles Center
09:51PM 33.9833 -117.9500 265° West 253 291 7,000 -1,200 Descending Southern California TRACON
09:52PM 33.9667 -118.0333 256° West 241 277 5,700 -1,320 Descending Southern California TRACON
09:53PM 33.9667 -118.1000 270° West 224 258 4,400 -1,200 Descending Southern California TRACON
09:54PM 33.9667 -118.1667 270° West 195 224 3,400 -960 Descending Southern California TRACON
09:55PM 33.9500 -118.2167 248° West 165 190 2,600 -900 Descending Southern California TRACON
09:56PM 33.9500 -118.2833 270° West 160 184 1,800 -780 Descending Southern California TRACON
09:57PM 33.9500 -118.3333 270° West 160 184 1,100 -780 Descending Southern California TRACON
09:58PM 33.9333 -118.3667 239° Southwest 133 153 300 -840 Descending Southern California TRACON
10:00PM 33.9333 -118.4000 259° West  Level FlightAware Approximate
10:07PM 33.9425 -118.4081 259° West  Level Estimated